Time;durP1;ratioP1;P1;durP2;ratioP2;P2;SDS_P1;SDS_P2;PMS_P1;PMS_P2;Temp;Humidity;BMP_temperature;BMP_pressure;BME280_temperature;BME280_humidity;BME280_pressure;Samples;Min_cycle;Max_cycle;Signal;HPM_P1;HPM_P2
2021/06/01 00:00:29;;;;;;;;;;;11.90;99.90;;;;;;5112879;28;19920;-69
2021/06/01 00:02:56;;;;;;;;;;;12.00;99.90;;;;;;5112702;28;19907;-71
2021/06/01 00:05:23;;;;;;;;;;;12.10;99.90;;;;;;5113251;28;19994;-69
2021/06/01 00:07:50;;;;;;;;;;;12.20;99.90;;;;;;5113046;28;19912;-71
2021/06/01 00:10:17;;;;;;;;;;;12.30;99.90;;;;;;5111685;28;19951;-69
2021/06/01 00:12:43;;;;;;;;;;;12.40;99.90;;;;;;5112769;28;19930;-69
2021/06/01 00:15:10;;;;;;;;;;;12.70;99.90;;;;;;5113175;28;19915;-70
2021/06/01 00:17:37;;;;;;;;;;;12.90;99.90;;;;;;5112918;28;19908;-69
2021/06/01 00:20:06;;;;;;;;;;;13.10;99.90;;;;;;5113080;28;19912;-68
2021/06/01 00:22:32;;;;;;;;;;;13.30;99.90;;;;;;5112959;28;20282;-68
2021/06/01 00:24:59;;;;;;;;;;;13.30;99.90;;;;;;5112602;28;19959;-68
2021/06/01 00:27:26;;;;;;;;;;;13.30;99.90;;;;;;5112954;28;19908;-69
2021/06/01 00:29:52;;;;;;;;;;;13.30;99.90;;;;;;5114874;28;19908;-69
2021/06/01 00:32:19;;;;;;;;;;;13.30;99.90;;;;;;5116518;28;19977;-69
2021/06/01 00:34:45;;;;;;;;;;;13.20;99.90;;;;;;5116284;28;20007;-69
2021/06/01 00:37:12;;;;;;;;;;;13.20;99.90;;;;;;5116347;28;19947;-69
2021/06/01 00:39:39;;;;;;;;;;;13.10;99.90;;;;;;5116249;28;20608;-69
2021/06/01 00:42:06;;;;;;;;;;;13.00;99.90;;;;;;5116583;28;19911;-68
2021/06/01 00:44:32;;;;;;;;;;;13.00;99.90;;;;;;5116111;28;19919;-68
2021/06/01 00:46:59;;;;;;;;;;;13.00;99.90;;;;;;5115811;28;19911;-68
2021/06/01 00:49:26;;;;;;;;;;;13.10;99.90;;;;;;5114884;28;20366;-68
2021/06/01 00:51:52;;;;;;;;;;;13.10;99.90;;;;;;5116143;28;20354;-69
2021/06/01 00:54:19;;;;;;;;;;;13.20;99.90;;;;;;5116066;28;19911;-68
2021/06/01 00:56:46;;;;;;;;;;;13.30;99.90;;;;;;5115688;28;19953;-69
2021/06/01 00:59:14;;;;;;;;;;;13.50;99.90;;;;;;5115896;28;20323;-70
2021/06/01 01:01:41;;;;;;;;;;;13.70;99.90;;;;;;5115861;28;19916;-69
2021/06/01 01:04:07;;;;;;;;;;;13.90;99.90;;;;;;5115999;28;19907;-69
2021/06/01 01:06:46;;;;;;;;;;;14.10;99.90;;;;;;5115960;28;19908;-70
2021/06/01 01:09:14;;;;;;;;;;;14.30;99.90;;;;;;5115891;28;19958;-70
2021/06/01 01:11:43;;;;;;;;;;;14.40;99.90;;;;;;5115661;28;20342;-70
2021/06/01 01:14:16;;;;;;;;;;;14.70;99.90;;;;;;5115579;28;20297;-70
2021/06/01 01:16:47;;;;;;;;;;;14.80;99.90;;;;;;5115287;28;19919;-68
2021/06/01 01:19:21;;;;;;;;;;;15.00;99.90;;;;;;5115794;28;19911;-70
2021/06/01 01:21:53;;;;;;;;;;;15.10;99.90;;;;;;5115660;28;20039;-71
2021/06/01 01:24:19;;;;;;;;;;;15.20;99.90;;;;;;5115341;28;19912;-71
2021/06/01 01:26:53;;;;;;;;;;;15.10;99.90;;;;;;5115341;28;20366;-69
2021/06/01 01:29:32;;;;;;;;;;;15.00;99.90;;;;;;5115522;28;19915;-70
2021/06/01 01:32:00;;;;;;;;;;;15.00;99.90;;;;;;5115315;28;19916;-69
2021/06/01 01:34:27;;;;;;;;;;;15.00;99.90;;;;;;5115317;28;19908;-69
2021/06/01 01:36:55;;;;;;;;;;;15.10;99.90;;;;;;5113839;28;19908;-69
2021/06/01 01:39:24;;;;;;;;;;;15.10;99.90;;;;;;5115162;28;20055;-70
2021/06/01 01:41:51;;;;;;;;;;;15.10;99.90;;;;;;5114518;28;19912;-70
2021/06/01 01:44:19;;;;;;;;;;;15.00;99.90;;;;;;5114974;28;19920;-68
2021/06/01 01:46:57;;;;;;;;;;;14.90;99.90;;;;;;5114706;28;20312;-68
2021/06/01 01:49:24;;;;;;;;;;;14.90;99.90;;;;;;5114947;28;19908;-70
2021/06/01 01:51:52;;;;;;;;;;;14.90;99.90;;;;;;5114913;28;19915;-69
2021/06/01 01:54:23;;;;;;;;;;;14.90;99.90;;;;;;5114971;28;19912;-68
2021/06/01 01:56:52;;;;;;;;;;;14.90;99.90;;;;;;5114704;28;20266;-69
2021/06/01 01:59:20;;;;;;;;;;;14.80;99.90;;;;;;5114829;28;19907;-71
2021/06/01 02:01:48;;;;;;;;;;;14.70;99.90;;;;;;5114535;28;19919;-69
2021/06/01 02:04:21;;;;;;;;;;;14.70;99.90;;;;;;5114617;28;19908;-71
2021/06/01 02:06:47;;;;;;;;;;;14.60;99.90;;;;;;5114518;28;19998;-70
2021/06/01 02:09:14;;;;;;;;;;;14.60;99.90;;;;;;5114551;28;19915;-70
2021/06/01 02:11:41;;;;;;;;;;;14.60;99.90;;;;;;5114637;28;19946;-69
2021/06/01 02:14:08;;;;;;;;;;;14.70;99.90;;;;;;5114602;28;19908;-70
2021/06/01 02:16:37;;;;;;;;;;;14.70;99.90;;;;;;5114383;28;19918;-70
2021/06/01 02:19:05;;;;;;;;;;;14.70;99.90;;;;;;5114148;28;20385;-70
2021/06/01 02:24:14;;;;;;;;;;;14.70;99.90;;;;;;5114320;28;19912;-69
2021/06/01 02:26:59;;;;;;;;;;;14.80;99.90;;;;;;5114284;28;19942;-69
2021/06/01 02:29:29;;;;;;;;;;;14.80;99.90;;;;;;5114123;28;19922;-69
2021/06/01 02:31:56;;;;;;;;;;;14.90;99.90;;;;;;5114178;28;19915;-69
2021/06/01 02:34:24;;;;;;;;;;;15.00;99.90;;;;;;5114157;28;19908;-69
2021/06/01 02:36:53;;;;;;;;;;;15.10;99.90;;;;;;5114074;28;20271;-70
2021/06/01 02:39:25;;;;;;;;;;;15.00;99.90;;;;;;5113946;28;20028;-70
2021/06/01 02:41:53;;;;;;;;;;;15.10;99.90;;;;;;5113937;28;19915;-70
2021/06/01 02:44:20;;;;;;;;;;;15.00;99.90;;;;;;5113818;28;20360;-70
2021/06/01 02:46:47;;;;;;;;;;;15.00;99.90;;;;;;5113748;28;19908;-70
2021/06/01 02:49:15;;;;;;;;;;;15.10;99.90;;;;;;5113887;28;20370;-70
2021/06/01 02:51:42;;;;;;;;;;;15.10;99.90;;;;;;5113799;28;20006;-71
2021/06/01 02:54:09;;;;;;;;;;;15.20;99.90;;;;;;5112943;28;19961;-69
2021/06/01 02:56:36;;;;;;;;;;;15.40;99.90;;;;;;5113860;28;19934;-70
2021/06/01 02:59:06;;;;;;;;;;;15.60;99.90;;;;;;5113604;28;20571;-69
2021/06/01 03:01:32;;;;;;;;;;;15.60;99.90;;;;;;5113547;28;19915;-70
2021/06/01 03:03:59;;;;;;;;;;;15.50;99.90;;;;;;5113727;28;19919;-68
2021/06/01 03:06:27;;;;;;;;;;;15.50;99.90;;;;;;5113657;28;19953;-69
2021/06/01 03:08:55;;;;;;;;;;;15.50;99.90;;;;;;5113573;28;19911;-70
2021/06/01 03:11:22;;;;;;;;;;;15.50;99.90;;;;;;5113514;28;19943;-69
2021/06/01 03:13:50;;;;;;;;;;;15.60;99.90;;;;;;5113631;28;19908;-69
2021/06/01 03:16:17;;;;;;;;;;;15.40;99.90;;;;;;5113511;28;19958;-68
2021/06/01 03:18:44;;;;;;;;;;;15.40;99.90;;;;;;5113383;28;19908;-71
2021/06/01 03:21:11;;;;;;;;;;;15.40;99.90;;;;;;5113565;28;19916;-70
2021/06/01 03:23:38;;;;;;;;;;;15.40;99.90;;;;;;5113300;28;19908;-69
2021/06/01 03:26:04;;;;;;;;;;;15.50;99.90;;;;;;5113680;28;20049;-72
2021/06/01 03:28:32;;;;;;;;;;;15.60;99.90;;;;;;5113672;28;19915;-69
2021/06/01 03:31:01;;;;;;;;;;;15.70;99.90;;;;;;5111912;28;20368;-70
2021/06/01 03:33:31;;;;;;;;;;;15.70;99.90;;;;;;5113410;28;20346;-69
2021/06/01 03:35:57;;;;;;;;;;;15.80;99.90;;;;;;5113317;28;19908;-71
2021/06/01 03:38:24;;;;;;;;;;;15.90;99.90;;;;;;5113325;28;19908;-69
2021/06/01 03:40:52;;;;;;;;;;;15.90;99.90;;;;;;5113137;28;19916;-70
2021/06/01 03:43:19;;;;;;;;;;;15.90;99.90;;;;;;5111804;28;20281;-71
2021/06/01 03:45:46;;;;;;;;;;;15.90;99.90;;;;;;5112958;28;20381;-71
2021/06/01 03:48:13;;;;;;;;;;;15.90;99.90;;;;;;5113232;28;19915;-69
2021/06/01 03:50:39;;;;;;;;;;;15.90;99.90;;;;;;5113552;28;19911;-71
2021/06/01 03:53:06;;;;;;;;;;;15.90;99.90;;;;;;5095444;28;19974;-71
2021/06/01 03:55:33;;;;;;;;;;;16.00;99.90;;;;;;5080232;28;19908;-71
2021/06/01 03:58:00;;;;;;;;;;;16.00;99.90;;;;;;5090195;28;19962;-70
2021/06/01 04:00:29;;;;;;;;;;;16.00;99.90;;;;;;5080396;28;19913;-69
2021/06/01 04:02:56;;;;;;;;;;;16.00;99.90;;;;;;5071744;28;19908;-70
2021/06/01 04:05:22;;;;;;;;;;;15.90;99.90;;;;;;5074734;28;20351;-71
2021/06/01 04:07:49;;;;;;;;;;;15.90;99.90;;;;;;5094680;28;19911;-71
2021/06/01 04:10:16;;;;;;;;;;;15.90;99.90;;;;;;5117020;28;19989;-70
2021/06/01 04:12:43;;;;;;;;;;;15.80;99.90;;;;;;5116864;28;19915;-70
2021/06/01 04:15:10;;;;;;;;;;;15.80;99.90;;;;;;5116541;28;19914;-69
2021/06/01 04:17:37;;;;;;;;;;;15.80;99.90;;;;;;5116840;28;19998;-71
2021/06/01 04:20:05;;;;;;;;;;;15.80;99.90;;;;;;5116542;28;20423;-70
2021/06/01 04:22:32;;;;;;;;;;;15.80;99.90;;;;;;5116801;28;19914;-71
2021/06/01 04:24:58;;;;;;;;;;;15.60;99.90;;;;;;5116512;28;19914;-70
2021/06/01 04:27:25;;;;;;;;;;;15.60;99.90;;;;;;5116677;28;19919;-70
2021/06/01 04:29:52;;;;;;;;;;;15.60;99.90;;;;;;5116501;28;19907;-71
2021/06/01 04:32:18;;;;;;;;;;;15.60;99.90;;;;;;5116566;28;19915;-71
2021/06/01 04:34:46;;;;;;;;;;;15.60;99.90;;;;;;5116490;28;19907;-71
2021/06/01 04:37:13;;;;;;;;;;;15.60;99.90;;;;;;5116389;28;20362;-72
2021/06/01 04:39:39;;;;;;;;;;;15.80;99.90;;;;;;5116354;28;19972;-71
2021/06/01 04:42:06;;;;;;;;;;;15.80;99.90;;;;;;5116338;28;19912;-69
2021/06/01 04:44:33;;;;;;;;;;;15.60;99.90;;;;;;5116135;28;19942;-71
2021/06/01 04:46:59;;;;;;;;;;;15.70;99.90;;;;;;5116277;28;20475;-71
2021/06/01 04:49:26;;;;;;;;;;;15.80;99.90;;;;;;5116139;28;19908;-68
2021/06/01 04:51:53;;;;;;;;;;;15.70;99.90;;;;;;5115958;28;19912;-68
2021/06/01 04:54:19;;;;;;;;;;;15.80;99.90;;;;;;5115988;28;19916;-70
2021/06/01 04:56:49;;;;;;;;;;;15.90;99.90;;;;;;5115677;28;19954;-70
2021/06/01 04:59:15;;;;;;;;;;;16.10;99.90;;;;;;5115892;28;19915;-69
2021/06/01 05:01:42;;;;;;;;;;;16.10;99.90;;;;;;5115666;28;19920;-68
2021/06/01 05:04:09;;;;;;;;;;;16.00;99.90;;;;;;5115785;28;20388;-68
2021/06/01 05:06:35;;;;;;;;;;;16.10;99.90;;;;;;5115826;28;19987;-68
2021/06/01 05:09:04;;;;;;;;;;;16.20;99.90;;;;;;5115726;28;19970;-70
2021/06/01 05:11:31;;;;;;;;;;;16.20;99.90;;;;;;5115678;28;20344;-69
2021/06/01 05:13:58;;;;;;;;;;;16.10;99.90;;;;;;5115600;28;19912;-68
2021/06/01 05:16:25;;;;;;;;;;;16.10;99.90;;;;;;5114459;28;19907;-67
2021/06/01 05:18:52;;;;;;;;;;;16.00;99.90;;;;;;5115501;28;19915;-67
2021/06/01 05:21:19;;;;;;;;;;;15.90;99.90;;;;;;5115394;28;20259;-67
2021/06/01 05:23:46;;;;;;;;;;;15.90;99.90;;;;;;5115282;28;19953;-67
2021/06/01 05:26:12;;;;;;;;;;;15.90;99.90;;;;;;5115438;28;19984;-70
2021/06/01 05:28:39;;;;;;;;;;;15.90;99.90;;;;;;5115518;28;20436;-69
2021/06/01 05:31:33;;;;;;;;;;;15.90;99.90;;;;;;5115001;28;19960;-70
2021/06/01 05:33:56;;;;;;;;;;;16.00;99.90;;;;;;5114995;28;19908;-67
2021/06/01 05:36:24;;;;;;;;;;;16.00;99.90;;;;;;5115297;28;19912;-68
2021/06/01 05:38:51;;;;;;;;;;;16.00;99.90;;;;;;5114977;28;19908;-70
2021/06/01 05:41:19;;;;;;;;;;;16.00;99.90;;;;;;5115068;28;19916;-68
2021/06/01 05:43:46;;;;;;;;;;;16.00;99.90;;;;;;5115183;28;20001;-68
2021/06/01 05:46:12;;;;;;;;;;;16.10;99.90;;;;;;5114892;28;20381;-68
2021/06/01 05:48:39;;;;;;;;;;;16.10;99.90;;;;;;5114972;28;20270;-67
2021/06/01 05:51:06;;;;;;;;;;;16.00;99.90;;;;;;5114554;28;19914;-67
2021/06/01 05:53:33;;;;;;;;;;;15.90;99.90;;;;;;5114970;28;19907;-70
2021/06/01 05:56:00;;;;;;;;;;;15.70;99.90;;;;;;5114820;28;20014;-70
2021/06/01 05:58:27;;;;;;;;;;;15.60;99.90;;;;;;5114787;28;20350;-69
2021/06/01 06:00:53;;;;;;;;;;;15.50;99.90;;;;;;5114381;28;20048;-69
2021/06/01 06:03:20;;;;;;;;;;;15.40;99.90;;;;;;5114668;28;19915;-70
2021/06/01 06:05:48;;;;;;;;;;;15.40;99.90;;;;;;5114797;28;19999;-70
2021/06/01 06:08:16;;;;;;;;;;;15.40;99.90;;;;;;5114745;28;19907;-70
2021/06/01 06:10:43;;;;;;;;;;;15.50;99.90;;;;;;5114675;28;20289;-68
2021/06/01 06:13:11;;;;;;;;;;;15.50;99.90;;;;;;5114638;28;19907;-71
2021/06/01 06:15:38;;;;;;;;;;;15.60;99.90;;;;;;5114514;28;19907;-71
2021/06/01 06:18:05;;;;;;;;;;;15.50;99.90;;;;;;5114296;28;20007;-71
2021/06/01 06:20:32;;;;;;;;;;;15.40;99.90;;;;;;5114526;28;19934;-71
2021/06/01 06:22:59;;;;;;;;;;;15.30;99.90;;;;;;5114306;28;20366;-71
2021/06/01 06:25:26;;;;;;;;;;;15.30;99.90;;;;;;5114177;28;19967;-71
2021/06/01 06:27:54;;;;;;;;;;;15.30;99.90;;;;;;5114083;28;19947;-71
2021/06/01 06:30:21;;;;;;;;;;;15.20;99.90;;;;;;5114261;28;19931;-71
2021/06/01 06:32:48;;;;;;;;;;;15.10;99.90;;;;;;5113786;28;19969;-70
2021/06/01 06:35:15;;;;;;;;;;;15.10;99.90;;;;;;5114171;28;19907;-72
2021/06/01 06:37:41;;;;;;;;;;;15.00;99.90;;;;;;5113916;28;19907;-71
2021/06/01 06:40:09;;;;;;;;;;;15.00;99.90;;;;;;5113993;28;19916;-72
2021/06/01 06:42:36;;;;;;;;;;;14.90;99.90;;;;;;5113262;28;20390;-71
2021/06/01 06:45:07;;;;;;;;;;;14.90;99.90;;;;;;5113375;28;20317;-71
2021/06/01 06:50:13;;;;;;;;;;;14.70;99.90;;;;;;5113903;28;19911;-71
2021/06/01 06:52:43;;;;;;;;;;;14.70;99.90;;;;;;5113834;28;19908;-72
2021/06/01 06:55:10;;;;;;;;;;;14.60;99.90;;;;;;5113760;28;19908;-71
2021/06/01 06:57:38;;;;;;;;;;;14.60;99.90;;;;;;5113700;28;19907;-72
2021/06/01 07:00:07;;;;;;;;;;;14.60;99.90;;;;;;5113399;28;19919;-71
2021/06/01 07:02:34;;;;;;;;;;;14.60;99.90;;;;;;5113723;28;19953;-71
2021/06/01 07:05:01;;;;;;;;;;;14.50;99.90;;;;;;5113352;28;19914;-71
2021/06/01 07:07:28;;;;;;;;;;;14.40;99.90;;;;;;5103769;28;19912;-71
2021/06/01 07:09:54;;;;;;;;;;;14.30;99.90;;;;;;5073116;28;20008;-69
2021/06/01 07:12:21;;;;;;;;;;;14.40;99.90;;;;;;5072664;28;19978;-71
2021/06/01 07:14:56;;;;;;;;;;;14.30;99.90;;;;;;5072404;28;19908;-71
2021/06/01 07:17:23;;;;;;;;;;;14.20;99.90;;;;;;5072600;28;19963;-71
2021/06/01 07:19:55;;;;;;;;;;;14.20;99.90;;;;;;5072192;28;19912;-71
2021/06/01 07:22:22;;;;;;;;;;;14.30;99.90;;;;;;5072845;28;19912;-71
2021/06/01 07:24:49;;;;;;;;;;;14.30;99.90;;;;;;5072357;28;19994;-71
2021/06/01 07:27:15;;;;;;;;;;;14.30;99.90;;;;;;5072878;28;20405;-70
2021/06/01 07:29:42;;;;;;;;;;;14.30;99.90;;;;;;5072663;28;19908;-71
2021/06/01 07:32:09;;;;;;;;;;;14.30;99.90;;;;;;5072813;28;20048;-70
2021/06/01 07:34:35;;;;;;;;;;;14.30;99.90;;;;;;5072135;28;20296;-71
2021/06/01 07:37:02;;;;;;;;;;;14.30;99.90;;;;;;5072381;28;20282;-71
2021/06/01 07:39:29;;;;;;;;;;;14.20;99.90;;;;;;5073855;28;19908;-71
2021/06/01 07:41:55;;;;;;;;;;;14.20;99.90;;;;;;5073973;28;19938;-71
2021/06/01 07:44:22;;;;;;;;;;;14.20;99.90;;;;;;5074392;28;19931;-71
2021/06/01 07:46:49;;;;;;;;;;;14.20;99.90;;;;;;5074246;28;19916;-70
2021/06/01 07:49:16;;;;;;;;;;;14.10;99.90;;;;;;5074070;28;19958;-70
2021/06/01 07:51:43;;;;;;;;;;;14.20;99.90;;;;;;5074845;28;19912;-70
2021/06/01 07:54:10;;;;;;;;;;;14.20;99.90;;;;;;5074077;28;19916;-70
2021/06/01 07:56:36;;;;;;;;;;;14.30;99.90;;;;;;5074502;28;19909;-70
2021/06/01 07:59:03;;;;;;;;;;;14.20;99.90;;;;;;5074085;28;20011;-71
2021/06/01 08:01:30;;;;;;;;;;;14.20;99.90;;;;;;5074075;28;19917;-70
2021/06/01 08:03:57;;;;;;;;;;;14.20;99.90;;;;;;5073693;28;20351;-71
2021/06/01 08:06:25;;;;;;;;;;;14.20;99.90;;;;;;5073584;28;19915;-71
2021/06/01 08:08:52;;;;;;;;;;;14.10;99.90;;;;;;5073905;28;19948;-72
2021/06/01 08:11:18;;;;;;;;;;;14.10;99.90;;;;;;5074211;28;19915;-72
2021/06/01 08:13:45;;;;;;;;;;;14.10;99.90;;;;;;5073762;28;19956;-71
2021/06/01 08:16:12;;;;;;;;;;;14.10;99.90;;;;;;5074015;28;20282;-70
2021/06/01 08:18:48;;;;;;;;;;;14.00;99.90;;;;;;5073440;28;19916;-69
2021/06/01 08:21:23;;;;;;;;;;;14.00;99.90;;;;;;5073526;28;20018;-71
2021/06/01 08:23:50;;;;;;;;;;;14.00;99.90;;;;;;5074088;28;19917;-71
2021/06/01 08:26:16;;;;;;;;;;;14.00;99.90;;;;;;5074166;28;19913;-71
2021/06/01 08:28:43;;;;;;;;;;;14.00;99.90;;;;;;5072231;28;19916;-69
2021/06/01 08:31:09;;;;;;;;;;;14.10;99.90;;;;;;5073741;28;19919;-69
2021/06/01 08:33:36;;;;;;;;;;;14.10;99.90;;;;;;5072860;28;19934;-70
2021/06/01 08:36:04;;;;;;;;;;;14.20;99.90;;;;;;5073694;28;19916;-69
2021/06/01 08:38:30;;;;;;;;;;;14.20;99.90;;;;;;5073623;28;19909;-71
2021/06/01 08:40:58;;;;;;;;;;;14.20;99.90;;;;;;5073429;28;19991;-71
2021/06/01 08:43:26;;;;;;;;;;;14.20;99.90;;;;;;5073396;28;20019;-71
2021/06/01 08:45:54;;;;;;;;;;;14.20;99.90;;;;;;5073158;28;19958;-71
2021/06/01 08:48:22;;;;;;;;;;;14.10;99.90;;;;;;5083448;28;19919;-72
2021/06/01 08:50:50;;;;;;;;;;;14.10;99.90;;;;;;5092406;28;19908;-70
2021/06/01 08:53:17;;;;;;;;;;;14.10;99.90;;;;;;5093861;28;19914;-71
2021/06/01 08:55:44;;;;;;;;;;;14.20;99.90;;;;;;5093550;28;19966;-71
2021/06/01 08:58:18;;;;;;;;;;;14.30;99.90;;;;;;5093207;28;19909;-69
2021/06/01 09:00:45;;;;;;;;;;;14.30;99.90;;;;;;5093216;28;20309;-71
2021/06/01 09:03:14;;;;;;;;;;;14.40;99.90;;;;;;5093393;28;19944;-69
2021/06/01 09:14:52;;;;;;;;;;;15.00;99.90;;;;;;5095187;28;19908;-70
2021/06/01 09:22:58;;;;;;;;;;;14.90;99.90;;;;;;5095470;28;19915;-70
2021/06/01 09:25:36;;;;;;;;;;;14.90;99.90;;;;;;5095157;28;20085;-71
2021/06/01 09:28:04;;;;;;;;;;;14.90;99.90;;;;;;5094693;28;19909;-71
2021/06/01 09:30:31;;;;;;;;;;;14.80;99.90;;;;;;5094806;28;19912;-72
2021/06/01 09:32:58;;;;;;;;;;;14.80;99.90;;;;;;5093280;28;19908;-70
2021/06/01 09:35:41;;;;;;;;;;;14.70;99.90;;;;;;5092983;28;19908;-70
2021/06/01 09:38:08;;;;;;;;;;;14.70;99.90;;;;;;5093308;28;19995;-71
2021/06/01 09:40:34;;;;;;;;;;;14.60;99.90;;;;;;5092929;28;19919;-71
2021/06/01 09:43:01;;;;;;;;;;;14.50;99.90;;;;;;5092799;28;19924;-71
2021/06/01 09:45:28;;;;;;;;;;;14.50;99.90;;;;;;5092934;28;19921;-70
2021/06/01 09:47:55;;;;;;;;;;;14.40;99.90;;;;;;5094186;28;19908;-71
2021/06/01 09:51:08;;;;;;;;;;;14.40;99.90;;;;;;5094617;28;19908;-71
2021/06/01 09:55:50;;;;;;;;;;;14.30;99.90;;;;;;5094721;28;20426;-71
2021/06/01 09:58:26;;;;;;;;;;;14.30;99.90;;;;;;5094324;28;19908;-70
2021/06/01 10:00:53;;;;;;;;;;;14.20;99.90;;;;;;5093822;28;19923;-70
2021/06/01 10:03:21;;;;;;;;;;;14.30;99.90;;;;;;5093784;28;19908;-71
2021/06/01 10:05:49;;;;;;;;;;;14.40;99.90;;;;;;5094288;28;19908;-71
2021/06/01 10:08:20;;;;;;;;;;;14.50;99.90;;;;;;5094352;28;20013;-72
2021/06/01 10:10:50;;;;;;;;;;;14.60;99.90;;;;;;5094162;28;19908;-71
2021/06/01 10:13:16;;;;;;;;;;;14.70;99.90;;;;;;5094011;28;20004;-71
2021/06/01 10:15:43;;;;;;;;;;;14.70;99.90;;;;;;5094131;28;19909;-71
2021/06/01 10:18:11;;;;;;;;;;;14.70;99.90;;;;;;5093990;28;20362;-71
2021/06/01 10:20:38;;;;;;;;;;;14.70;99.90;;;;;;5093912;28;20381;-73
2021/06/01 10:23:06;;;;;;;;;;;14.70;99.90;;;;;;5093779;28;19958;-71
2021/06/01 10:25:33;;;;;;;;;;;14.70;99.90;;;;;;5088920;28;20034;-70
2021/06/01 10:28:03;;;;;;;;;;;14.60;99.90;;;;;;5093832;28;19912;-71
2021/06/01 10:30:31;;;;;;;;;;;14.60;99.90;;;;;;5094023;28;19915;-69
2021/06/01 10:33:04;;;;;;;;;;;14.50;99.90;;;;;;5093622;28;19942;-70
2021/06/01 10:35:37;;;;;;;;;;;14.40;99.90;;;;;;5093774;28;19935;-72
2021/06/01 10:49:50;;;;;;;;;;;14.30;99.90;;;;;;5093553;28;20038;-72
2021/06/01 10:51:57;;;;;;;;;;;14.30;99.90;;;;;;5093510;28;19908;-70
2021/06/01 10:54:39;;;;;;;;;;;14.20;99.90;;;;;;5092793;28;19908;-70
2021/06/01 10:57:06;;;;;;;;;;;14.10;99.90;;;;;;5093300;28;20002;-70
2021/06/01 11:02:18;;;;;;;;;;;14.10;99.90;;;;;;5093501;28;19916;-71
2021/06/01 11:05:05;;;;;;;;;;;14.00;99.90;;;;;;5093115;28;20357;-70
2021/06/01 11:07:50;;;;;;;;;;;14.00;99.90;;;;;;5092494;28;20350;-72
2021/06/01 11:10:35;;;;;;;;;;;14.00;99.90;;;;;;5109959;27;19933;-70
2021/06/01 11:13:02;;;;;;;;;;;13.90;99.90;;;;;;5092242;28;19912;-69
2021/06/01 11:15:30;;;;;;;;;;;13.80;99.90;;;;;;5092358;28;19908;-70
2021/06/01 11:18:14;;;;;;;;;;;13.80;99.90;;;;;;5093078;28;20310;-69
2021/06/01 11:21:01;;;;;;;;;;;13.70;99.90;;;;;;5093545;28;20397;-69
2021/06/01 11:23:45;;;;;;;;;;;13.60;99.90;;;;;;5096230;28;19954;-69
2021/06/01 11:34:37;;;;;;;;;;;13.60;99.90;;;;;;5093877;28;19966;-70
2021/06/01 11:37:15;;;;;;;;;;;13.60;99.90;;;;;;5093028;28;19912;-70
2021/06/01 11:42:52;;;;;;;;;;;13.60;99.90;;;;;;5058864;28;19916;-68
2021/06/01 11:45:22;;;;;;;;;;;13.60;99.90;;;;;;5092176;28;20004;-70
2021/06/01 11:48:06;;;;;;;;;;;13.70;99.90;;;;;;5093200;28;19908;-70
2021/06/01 11:53:17;;;;;;;;;;;13.70;99.90;;;;;;5092066;28;19923;-70
2021/06/01 11:55:49;;;;;;;;;;;13.70;99.90;;;;;;5092199;28;19908;-71
2021/06/01 12:03:54;;;;;;;;;;;13.70;99.90;;;;;;5093100;28;19915;-70
2021/06/01 12:12:11;;;;;;;;;;;13.70;99.90;;;;;;5093141;28;19924;-71
2021/06/01 12:17:52;;;;;;;;;;;14.00;99.90;;;;;;5092660;28;20381;-70
2021/06/01 12:20:19;;;;;;;;;;;14.10;99.90;;;;;;5092686;28;20048;-70
2021/06/01 12:22:46;;;;;;;;;;;14.00;99.90;;;;;;5092338;28;19912;-69
2021/06/01 12:25:12;;;;;;;;;;;14.00;99.90;;;;;;5093049;28;19915;-69
2021/06/01 12:28:05;;;;;;;;;;;13.90;99.90;;;;;;5096160;28;19919;-70
2021/06/01 12:33:37;;;;;;;;;;;13.80;99.90;;;;;;5033839;28;19909;-70
2021/06/01 12:44:08;;;;;;;;;;;13.70;99.90;;;;;;5095821;28;19920;-69
2021/06/01 13:14:14;;;;;;;;;;;13.80;99.90;;;;;;5085542;28;20413;-71
2021/06/01 13:19:29;;;;;;;;;;;13.80;99.90;;;;;;5075640;28;19914;-70
2021/06/01 13:22:05;;;;;;;;;;;13.80;99.90;;;;;;5074965;28;19917;-69
2021/06/01 13:30:25;;;;;;;;;;;13.60;99.90;;;;;;5075306;28;19938;-71
2021/06/01 13:38:35;;;;;;;;;;;13.80;99.90;;;;;;5074637;28;19961;-70
2021/06/01 13:46:43;;;;;;;;;;;13.70;99.90;;;;;;5075009;28;20445;-68
2021/06/01 13:49:15;;;;;;;;;;;13.70;99.90;;;;;;5074371;28;19919;-70
2021/06/01 13:57:03;;;;;;;;;;;13.70;99.90;;;;;;5074555;28;19915;-69
2021/06/01 13:59:48;;;;;;;;;;;13.70;99.90;;;;;;5074255;28;19912;-69
2021/06/01 14:21:18;;;;;;;;;;;13.30;99.90;;;;;;5073576;28;19928;-69
2021/06/01 15:10:11;;;;;;;;;;;12.60;99.90;;;;;;5073617;28;19934;-68
2021/06/01 15:29:37;;;;;;;;;;;12.60;99.90;;;;;;5073117;28;19915;-69
2021/06/01 15:32:42;;;;;;;;;;;12.60;99.90;;;;;;5073019;28;19908;-69
2021/06/01 15:49:06;;;;;;;;;;;12.60;99.90;;;;;;5052711;28;19991;-69
2021/06/01 15:54:53;;;;;;;;;;;12.50;99.90;;;;;;5072979;28;20339;-70
2021/06/01 16:11:31;;;;;;;;;;;12.30;99.90;;;;;;5076326;28;19943;-70
2021/06/01 16:30:24;;;;;;;;;;;11.60;99.90;;;;;;5076397;28;19958;-69
2021/06/01 16:33:17;;;;;;;;;;;11.50;99.90;;;;;;5075848;28;20010;-69
2021/06/01 16:44:50;;;;;;;;;;;11.50;99.90;;;;;;5013717;28;19921;-69
2021/06/01 17:04:03;;;;;;;;;;;11.40;99.90;;;;;;5081262;28;20318;-70
2021/06/01 17:06:37;;;;;;;;;;;11.40;99.90;;;;;;5088820;28;19966;-71
2021/06/01 17:11:01;;;;;;;;;;;11.50;99.90;;;;;;5089946;28;20349;-69
2021/06/01 17:11:51;;;;;;;;;;;11.40;99.90;;;;;;5089378;28;19966;-70
2021/06/01 17:14:20;;;;;;;;;;;11.40;99.90;;;;;;5089872;28;19948;-69
2021/06/01 17:16:53;;;;;;;;;;;11.30;99.90;;;;;;5077118;28;19908;-69
2021/06/01 17:22:24;;;;;;;;;;;11.30;99.90;;;;;;5075275;28;20013;-69
2021/06/01 17:31:14;;;;;;;;;;;11.40;99.90;;;;;;5075294;28;19992;-70
2021/06/01 17:35:57;;;;;;;;;;;11.50;99.90;;;;;;5075251;28;19915;-70
2021/06/01 17:38:24;;;;;;;;;;;11.70;99.90;;;;;;5074552;28;19916;-69
2021/06/01 17:40:57;;;;;;;;;;;11.80;99.90;;;;;;5074307;28;19963;-71
2021/06/01 17:43:28;;;;;;;;;;;11.80;99.90;;;;;;5074520;28;20244;-69
2021/06/01 17:45:55;;;;;;;;;;;11.90;99.90;;;;;;5074618;28;20055;-71
2021/06/01 17:48:31;;;;;;;;;;;11.90;99.90;;;;;;5074557;28;19909;-69
2021/06/01 17:50:59;;;;;;;;;;;11.90;99.90;;;;;;5074322;28;19908;-71
2021/06/01 17:53:26;;;;;;;;;;;11.90;99.90;;;;;;5074443;28;19909;-70
2021/06/01 17:55:53;;;;;;;;;;;11.90;99.90;;;;;;5074201;28;19908;-67
2021/06/01 17:58:23;;;;;;;;;;;11.90;99.90;;;;;;5074298;28;20022;-69
2021/06/01 18:00:51;;;;;;;;;;;11.90;99.90;;;;;;5074087;28;19959;-69
2021/06/01 18:03:21;;;;;;;;;;;11.90;99.90;;;;;;5074294;28;19908;-70
2021/06/01 18:05:49;;;;;;;;;;;11.90;99.90;;;;;;5074213;28;19947;-70
2021/06/01 18:08:39;;;;;;;;;;;11.90;99.90;;;;;;5074115;28;19908;-69
2021/06/01 19:06:05;;;;;;;;;;;11.90;99.90;;;;;;5073531;28;19937;-70
2021/06/01 19:23:07;;;;;;;;;;;11.60;99.90;;;;;;5073237;28;19927;-70
2021/06/01 19:25:19;;;;;;;;;;;11.60;99.90;;;;;;5072916;28;19933;-70
2021/06/01 19:49:57;;;;;;;;;;;11.90;99.90;;;;;;5077158;28;19947;-69
2021/06/01 19:52:28;;;;;;;;;;;12.00;99.90;;;;;;5076684;28;19924;-69
2021/06/01 19:54:55;;;;;;;;;;;12.10;99.90;;;;;;5076334;28;19919;-70
2021/06/01 19:57:23;;;;;;;;;;;12.10;99.90;;;;;;5076815;28;19954;-69
2021/06/01 19:59:50;;;;;;;;;;;12.10;99.90;;;;;;5076739;28;19908;-67
2021/06/01 20:02:19;;;;;;;;;;;12.10;99.90;;;;;;5076563;28;19920;-70
2021/06/01 20:04:49;;;;;;;;;;;12.00;99.90;;;;;;5076362;28;19908;-70
2021/06/01 20:07:16;;;;;;;;;;;12.00;99.90;;;;;;5076260;28;19978;-69
2021/06/01 20:09:44;;;;;;;;;;;11.90;99.90;;;;;;5076317;28;19917;-69
2021/06/01 20:12:11;;;;;;;;;;;11.80;99.90;;;;;;5076233;28;19924;-70
2021/06/01 20:14:37;;;;;;;;;;;11.60;99.90;;;;;;5076373;28;20378;-69
2021/06/01 20:17:08;;;;;;;;;;;11.50;99.90;;;;;;5076068;28;19916;-69
2021/06/01 20:19:34;;;;;;;;;;;11.40;99.90;;;;;;5076326;28;19978;-68
2021/06/01 20:22:02;;;;;;;;;;;11.30;99.90;;;;;;5076198;28;19921;-70
2021/06/01 20:24:31;;;;;;;;;;;11.10;99.90;;;;;;5076020;28;19909;-69
2021/06/01 20:26:59;;;;;;;;;;;11.10;99.90;;;;;;5075879;28;19909;-70
2021/06/01 20:29:31;;;;;;;;;;;11.10;99.90;;;;;;5076031;28;19909;-69
2021/06/01 20:33:06;;;;;;;;;;;11.00;99.90;;;;;;5075935;28;19915;-71
2021/06/01 20:34:46;;;;;;;;;;;11.00;99.90;;;;;;5075653;28;19908;-67
2021/06/01 20:37:13;;;;;;;;;;;11.00;99.90;;;;;;5075877;28;20363;-69
2021/06/01 20:39:42;;;;;;;;;;;10.90;99.90;;;;;;5075844;28;19912;-70
2021/06/01 20:42:09;;;;;;;;;;;10.90;99.90;;;;;;5075774;28;19924;-70
2021/06/01 20:44:36;;;;;;;;;;;11.00;99.90;;;;;;5075900;28;19920;-68
2021/06/01 20:47:03;;;;;;;;;;;11.00;99.90;;;;;;5073859;28;20275;-69
2021/06/01 20:49:30;;;;;;;;;;;11.00;99.90;;;;;;5075624;28;19920;-68
2021/06/01 20:51:57;;;;;;;;;;;11.00;99.90;;;;;;5075584;28;19915;-68
2021/06/01 20:54:25;;;;;;;;;;;10.90;99.90;;;;;;5075458;28;20035;-69